sensor_id;sensor_type;location;lat;lon;timestamp;temperature;humidity
67862;DHT22;54665;51.462;6.698;2023-10-09T00:01:07;13.44;99.95
67862;DHT22;54665;51.462;6.698;2023-10-09T00:03:08;13.39;99.81
67862;DHT22;54665;51.462;6.698;2023-10-09T00:05:08;13.39;99.88
67862;DHT22;54665;51.462;6.698;2023-10-09T00:07:09;13.31;99.71
67862;DHT22;54665;51.462;6.698;2023-10-09T00:09:10;13.28;99.72
67862;DHT22;54665;51.462;6.698;2023-10-09T00:11:10;13.31;99.99
67862;DHT22;54665;51.462;6.698;2023-10-09T00:13:11;13.41;99.99
67862;DHT22;54665;51.462;6.698;2023-10-09T00:15:11;13.33;99.83
67862;DHT22;54665;51.462;6.698;2023-10-09T00:17:12;13.30;99.77
67862;DHT22;54665;51.462;6.698;2023-10-09T00:19:12;13.28;99.67
67862;DHT22;54665;51.462;6.698;2023-10-09T00:21:18;13.27;99.75
67862;DHT22;54665;51.462;6.698;2023-10-09T00:23:19;13.26;99.80
67862;DHT22;54665;51.462;6.698;2023-10-09T00:25:19;13.21;99.78
67862;DHT22;54665;51.462;6.698;2023-10-09T00:27:19;13.19;99.73
67862;DHT22;54665;51.462;6.698;2023-10-09T00:29:20;13.16;99.70
67862;DHT22;54665;51.462;6.698;2023-10-09T00:31:20;13.14;99.68
67862;DHT22;54665;51.462;6.698;2023-10-09T00:33:20;13.14;99.71
67862;DHT22;54665;51.462;6.698;2023-10-09T00:35:21;13.14;99.65
67862;DHT22;54665;51.462;6.698;2023-10-09T00:37:21;13.21;99.78
67862;DHT22;54665;51.462;6.698;2023-10-09T00:39:22;13.28;99.87
67862;DHT22;54665;51.462;6.698;2023-10-09T00:41:22;13.31;99.82
67862;DHT22;54665;51.462;6.698;2023-10-09T00:43:23;13.34;99.78
67862;DHT22;54665;51.462;6.698;2023-10-09T00:45:23;13.36;99.77
67862;DHT22;54665;51.462;6.698;2023-10-09T00:47:24;13.36;99.76
67862;DHT22;54665;51.462;6.698;2023-10-09T00:49:25;13.36;99.71
67862;DHT22;54665;51.462;6.698;2023-10-09T00:51:25;13.31;99.69
67862;DHT22;54665;51.462;6.698;2023-10-09T00:53:27;13.27;99.68
67862;DHT22;54665;51.462;6.698;2023-10-09T00:55:27;13.28;99.66
67862;DHT22;54665;51.462;6.698;2023-10-09T00:57:30;13.27;99.67
67862;DHT22;54665;51.462;6.698;2023-10-09T00:59:31;13.26;99.67
67862;DHT22;54665;51.462;6.698;2023-10-09T01:01:33;13.27;99.84
67862;DHT22;54665;51.462;6.698;2023-10-09T01:03:34;13.24;99.84
67862;DHT22;54665;51.462;6.698;2023-10-09T01:05:34;13.23;99.81
67862;DHT22;54665;51.462;6.698;2023-10-09T01:07:34;13.23;99.73
67862;DHT22;54665;51.462;6.698;2023-10-09T01:09:35;13.27;99.79
67862;DHT22;54665;51.462;6.698;2023-10-09T01:11:36;13.27;99.76
67862;DHT22;54665;51.462;6.698;2023-10-09T01:13:37;13.28;99.76
67862;DHT22;54665;51.462;6.698;2023-10-09T01:15:38;13.28;99.74
67862;DHT22;54665;51.462;6.698;2023-10-09T01:17:38;13.28;99.74
67862;DHT22;54665;51.462;6.698;2023-10-09T01:19:38;13.37;99.73
67862;DHT22;54665;51.462;6.698;2023-10-09T01:21:39;13.34;99.69
67862;DHT22;54665;51.462;6.698;2023-10-09T01:23:41;13.33;99.71
67862;DHT22;54665;51.462;6.698;2023-10-09T01:25:41;13.28;99.70
67862;DHT22;54665;51.462;6.698;2023-10-09T01:27:42;13.33;99.74
67862;DHT22;54665;51.462;6.698;2023-10-09T01:29:43;13.27;99.65
67862;DHT22;54665;51.462;6.698;2023-10-09T01:31:45;13.24;99.59
67862;DHT22;54665;51.462;6.698;2023-10-09T01:33:46;13.17;99.61
67862;DHT22;54665;51.462;6.698;2023-10-09T01:35:46;13.14;99.59
67862;DHT22;54665;51.462;6.698;2023-10-09T01:37:46;13.12;99.69
67862;DHT22;54665;51.462;6.698;2023-10-09T01:39:51;13.09;99.67
67862;DHT22;54665;51.462;6.698;2023-10-09T01:41:53;13.07;99.71
67862;DHT22;54665;51.462;6.698;2023-10-09T01:43:53;13.03;99.71
67862;DHT22;54665;51.462;6.698;2023-10-09T01:45:54;12.97;99.73
67862;DHT22;54665;51.462;6.698;2023-10-09T01:47:54;12.99;99.79
67862;DHT22;54665;51.462;6.698;2023-10-09T01:49:54;12.90;99.76
67862;DHT22;54665;51.462;6.698;2023-10-09T01:51:56;12.92;99.85
67862;DHT22;54665;51.462;6.698;2023-10-09T01:53:56;12.85;99.79
67862;DHT22;54665;51.462;6.698;2023-10-09T01:55:57;12.83;99.88
67862;DHT22;54665;51.462;6.698;2023-10-09T01:57:57;12.78;99.90
67862;DHT22;54665;51.462;6.698;2023-10-09T01:59:59;12.83;99.99
67862;DHT22;54665;51.462;6.698;2023-10-09T02:01:59;12.82;99.87
67862;DHT22;54665;51.462;6.698;2023-10-09T02:03:59;12.85;99.85
67862;DHT22;54665;51.462;6.698;2023-10-09T02:06:00;12.83;99.85
67862;DHT22;54665;51.462;6.698;2023-10-09T02:08:00;12.89;99.98
67862;DHT22;54665;51.462;6.698;2023-10-09T02:10:00;12.92;99.92
67862;DHT22;54665;51.462;6.698;2023-10-09T02:12:01;12.97;99.99
67862;DHT22;54665;51.462;6.698;2023-10-09T02:14:04;12.97;99.94
67862;DHT22;54665;51.462;6.698;2023-10-09T02:16:04;12.99;99.98
67862;DHT22;54665;51.462;6.698;2023-10-09T02:18:05;13.04;99.93
67862;DHT22;54665;51.462;6.698;2023-10-09T02:20:05;13.07;99.89
67862;DHT22;54665;51.462;6.698;2023-10-09T02:22:06;13.09;99.88
67862;DHT22;54665;51.462;6.698;2023-10-09T02:24:06;13.12;99.91
67862;DHT22;54665;51.462;6.698;2023-10-09T02:26:07;13.16;99.93
67862;DHT22;54665;51.462;6.698;2023-10-09T02:28:07;13.17;99.92
67862;DHT22;54665;51.462;6.698;2023-10-09T02:30:08;13.20;99.86
67862;DHT22;54665;51.462;6.698;2023-10-09T02:32:09;13.19;99.84
67862;DHT22;54665;51.462;6.698;2023-10-09T02:34:09;13.24;99.85
67862;DHT22;54665;51.462;6.698;2023-10-09T02:36:10;13.26;99.93
67862;DHT22;54665;51.462;6.698;2023-10-09T02:38:10;13.28;99.93
67862;DHT22;54665;51.462;6.698;2023-10-09T02:40:11;13.33;99.89
67862;DHT22;54665;51.462;6.698;2023-10-09T02:42:11;13.34;99.87
67862;DHT22;54665;51.462;6.698;2023-10-09T02:44:14;13.40;99.86
67862;DHT22;54665;51.462;6.698;2023-10-09T02:46:17;13.43;99.81
67862;DHT22;54665;51.462;6.698;2023-10-09T02:48:18;13.41;99.78
67862;DHT22;54665;51.462;6.698;2023-10-09T02:50:18;13.46;99.72
67862;DHT22;54665;51.462;6.698;2023-10-09T02:52:18;13.53;99.62
67862;DHT22;54665;51.462;6.698;2023-10-09T02:54:20;13.55;99.69
67862;DHT22;54665;51.462;6.698;2023-10-09T02:56:20;13.58;99.69
67862;DHT22;54665;51.462;6.698;2023-10-09T02:58:21;13.64;99.66
67862;DHT22;54665;51.462;6.698;2023-10-09T03:00:22;13.68;99.61
67862;DHT22;54665;51.462;6.698;2023-10-09T03:02:22;13.68;99.63
67862;DHT22;54665;51.462;6.698;2023-10-09T03:04:23;13.74;99.52
67862;DHT22;54665;51.462;6.698;2023-10-09T03:06:23;13.79;99.66
67862;DHT22;54665;51.462;6.698;2023-10-09T03:08:23;13.81;99.52
67862;DHT22;54665;51.462;6.698;2023-10-09T03:10:24;13.86;99.38
67862;DHT22;54665;51.462;6.698;2023-10-09T03:12:24;13.91;99.48
67862;DHT22;54665;51.462;6.698;2023-10-09T03:14:24;13.91;99.38
67862;DHT22;54665;51.462;6.698;2023-10-09T03:16:24;13.98;99.28
67862;DHT22;54665;51.462;6.698;2023-10-09T03:18:25;14.02;98.87
67862;DHT22;54665;51.462;6.698;2023-10-09T03:20:25;14.05;98.84
67862;DHT22;54665;51.462;6.698;2023-10-09T03:22:25;14.06;99.02
67862;DHT22;54665;51.462;6.698;2023-10-09T03:24:26;14.06;98.90
67862;DHT22;54665;51.462;6.698;2023-10-09T03:26:26;14.08;98.84
67862;DHT22;54665;51.462;6.698;2023-10-09T03:28:27;14.12;98.42
67862;DHT22;54665;51.462;6.698;2023-10-09T03:30:27;14.11;98.59
67862;DHT22;54665;51.462;6.698;2023-10-09T03:32:27;14.12;98.50
67862;DHT22;54665;51.462;6.698;2023-10-09T03:34:27;14.15;98.70
67862;DHT22;54665;51.462;6.698;2023-10-09T03:36:28;14.15;98.54
67862;DHT22;54665;51.462;6.698;2023-10-09T03:38:29;14.18;98.29
67862;DHT22;54665;51.462;6.698;2023-10-09T03:40:29;14.16;98.36
67862;DHT22;54665;51.462;6.698;2023-10-09T03:42:29;14.15;98.22
67862;DHT22;54665;51.462;6.698;2023-10-09T03:44:31;14.18;97.98
67862;DHT22;54665;51.462;6.698;2023-10-09T03:46:31;14.18;97.72
67862;DHT22;54665;51.462;6.698;2023-10-09T03:48:31;14.21;97.67
67862;DHT22;54665;51.462;6.698;2023-10-09T03:50:32;14.21;97.78
67862;DHT22;54665;51.462;6.698;2023-10-09T03:52:32;14.19;97.74
67862;DHT22;54665;51.462;6.698;2023-10-09T03:54:35;14.22;97.76
67862;DHT22;54665;51.462;6.698;2023-10-09T03:56:35;14.22;97.42
67862;DHT22;54665;51.462;6.698;2023-10-09T03:58:45;14.22;97.72
67862;DHT22;54665;51.462;6.698;2023-10-09T04:00:45;14.18;97.63
67862;DHT22;54665;51.462;6.698;2023-10-09T04:02:45;14.19;97.69
67862;DHT22;54665;51.462;6.698;2023-10-09T04:04:46;14.18;97.58
67862;DHT22;54665;51.462;6.698;2023-10-09T04:06:48;14.16;97.69
67862;DHT22;54665;51.462;6.698;2023-10-09T04:08:49;14.19;97.68
67862;DHT22;54665;51.462;6.698;2023-10-09T04:10:49;14.16;97.24
67862;DHT22;54665;51.462;6.698;2023-10-09T04:12:49;14.18;97.39
67862;DHT22;54665;51.462;6.698;2023-10-09T04:14:50;14.21;97.31
67862;DHT22;54665;51.462;6.698;2023-10-09T04:16:50;14.21;97.25
67862;DHT22;54665;51.462;6.698;2023-10-09T04:18:50;14.18;97.52
67862;DHT22;54665;51.462;6.698;2023-10-09T04:20:50;14.23;97.37
67862;DHT22;54665;51.462;6.698;2023-10-09T04:22:51;14.23;97.43
67862;DHT22;54665;51.462;6.698;2023-10-09T04:24:51;14.26;97.25
67862;DHT22;54665;51.462;6.698;2023-10-09T04:26:54;14.29;96.87
67862;DHT22;54665;51.462;6.698;2023-10-09T04:28:54;14.33;97.14
67862;DHT22;54665;51.462;6.698;2023-10-09T04:30:54;14.34;96.86
67862;DHT22;54665;51.462;6.698;2023-10-09T04:32:55;14.33;96.74
67862;DHT22;54665;51.462;6.698;2023-10-09T04:34:55;14.36;96.85
67862;DHT22;54665;51.462;6.698;2023-10-09T04:36:56;14.34;96.79
67862;DHT22;54665;51.462;6.698;2023-10-09T04:38:56;14.32;96.73
67862;DHT22;54665;51.462;6.698;2023-10-09T04:40:57;14.32;96.55
67862;DHT22;54665;51.462;6.698;2023-10-09T04:42:57;14.37;96.41
67862;DHT22;54665;51.462;6.698;2023-10-09T04:44:57;14.43;96.40
67862;DHT22;54665;51.462;6.698;2023-10-09T04:46:58;14.43;96.45
67862;DHT22;54665;51.462;6.698;2023-10-09T04:48:58;14.40;96.54
67862;DHT22;54665;51.462;6.698;2023-10-09T04:51:01;14.34;96.52
67862;DHT22;54665;51.462;6.698;2023-10-09T04:53:02;14.33;96.44
67862;DHT22;54665;51.462;6.698;2023-10-09T04:55:03;14.28;96.37
67862;DHT22;54665;51.462;6.698;2023-10-09T04:57:03;14.32;96.54
67862;DHT22;54665;51.462;6.698;2023-10-09T04:59:04;14.34;96.69
67862;DHT22;54665;51.462;6.698;2023-10-09T05:01:04;14.37;96.23
67862;DHT22;54665;51.462;6.698;2023-10-09T05:03:04;14.37;96.45
67862;DHT22;54665;51.462;6.698;2023-10-09T05:05:05;14.36;96.70
67862;DHT22;54665;51.462;6.698;2023-10-09T05:07:06;14.39;96.60
67862;DHT22;54665;51.462;6.698;2023-10-09T05:09:09;14.39;96.68
67862;DHT22;54665;51.462;6.698;2023-10-09T05:11:10;14.40;96.59
67862;DHT22;54665;51.462;6.698;2023-10-09T05:13:10;14.44;96.06
67862;DHT22;54665;51.462;6.698;2023-10-09T05:15:10;14.43;96.54
67862;DHT22;54665;51.462;6.698;2023-10-09T05:17:10;14.49;96.03
67862;DHT22;54665;51.462;6.698;2023-10-09T05:19:11;14.52;96.14
67862;DHT22;54665;51.462;6.698;2023-10-09T05:21:11;14.52;96.06
67862;DHT22;54665;51.462;6.698;2023-10-09T05:23:11;14.50;96.25
67862;DHT22;54665;51.462;6.698;2023-10-09T05:25:12;14.52;96.26
67862;DHT22;54665;51.462;6.698;2023-10-09T05:27:12;14.46;96.46
67862;DHT22;54665;51.462;6.698;2023-10-09T05:31:19;14.53;96.11
67862;DHT22;54665;51.462;6.698;2023-10-09T05:33:19;14.55;96.07
67862;DHT22;54665;51.462;6.698;2023-10-09T05:35:19;14.56;96.42
67862;DHT22;54665;51.462;6.698;2023-10-09T05:37:20;14.56;96.35
67862;DHT22;54665;51.462;6.698;2023-10-09T05:39:20;14.53;96.34
67862;DHT22;54665;51.462;6.698;2023-10-09T05:41:21;14.52;96.46
67862;DHT22;54665;51.462;6.698;2023-10-09T05:43:21;14.52;96.06
67862;DHT22;54665;51.462;6.698;2023-10-09T05:45:22;14.49;96.40
67862;DHT22;54665;51.462;6.698;2023-10-09T05:47:22;14.50;96.56
67862;DHT22;54665;51.462;6.698;2023-10-09T05:49:22;14.50;96.24
67862;DHT22;54665;51.462;6.698;2023-10-09T05:51:22;14.50;96.27
67862;DHT22;54665;51.462;6.698;2023-10-09T05:53:23;14.50;96.37
67862;DHT22;54665;51.462;6.698;2023-10-09T05:55:24;14.50;96.52
67862;DHT22;54665;51.462;6.698;2023-10-09T05:57:25;14.53;96.56
67862;DHT22;54665;51.462;6.698;2023-10-09T05:59:25;14.53;96.62
67862;DHT22;54665;51.462;6.698;2023-10-09T06:01:25;14.52;96.75
67862;DHT22;54665;51.462;6.698;2023-10-09T06:03:26;14.52;96.64
67862;DHT22;54665;51.462;6.698;2023-10-09T06:05:26;14.52;96.65
67862;DHT22;54665;51.462;6.698;2023-10-09T06:07:26;14.55;96.70
67862;DHT22;54665;51.462;6.698;2023-10-09T06:09:26;14.56;96.65
67862;DHT22;54665;51.462;6.698;2023-10-09T06:11:27;14.56;96.62
67862;DHT22;54665;51.462;6.698;2023-10-09T06:13:27;14.59;96.62
67862;DHT22;54665;51.462;6.698;2023-10-09T06:15:27;14.63;96.69
67862;DHT22;54665;51.462;6.698;2023-10-09T06:17:28;14.66;96.47
67862;DHT22;54665;51.462;6.698;2023-10-09T06:19:28;14.72;96.18
67862;DHT22;54665;51.462;6.698;2023-10-09T06:21:28;14.83;95.68
67862;DHT22;54665;51.462;6.698;2023-10-09T06:23:29;14.81;95.44
67862;DHT22;54665;51.462;6.698;2023-10-09T06:25:29;14.84;95.67
67862;DHT22;54665;51.462;6.698;2023-10-09T06:27:29;14.87;95.89
67862;DHT22;54665;51.462;6.698;2023-10-09T06:29:30;14.87;95.95
67862;DHT22;54665;51.462;6.698;2023-10-09T06:31:32;14.90;95.97
67862;DHT22;54665;51.462;6.698;2023-10-09T06:33:33;14.93;95.89
67862;DHT22;54665;51.462;6.698;2023-10-09T06:35:34;14.95;95.77
67862;DHT22;54665;51.462;6.698;2023-10-09T06:37:36;14.97;95.73
67862;DHT22;54665;51.462;6.698;2023-10-09T06:39:37;14.98;95.56
67862;DHT22;54665;51.462;6.698;2023-10-09T06:41:37;15.03;95.32
67862;DHT22;54665;51.462;6.698;2023-10-09T06:43:37;15.04;95.48
67862;DHT22;54665;51.462;6.698;2023-10-09T06:45:38;15.12;94.92
67862;DHT22;54665;51.462;6.698;2023-10-09T06:47:38;15.17;95.04
67862;DHT22;54665;51.462;6.698;2023-10-09T06:49:38;15.17;94.86
67862;DHT22;54665;51.462;6.698;2023-10-09T06:51:39;15.18;94.83
67862;DHT22;54665;51.462;6.698;2023-10-09T06:53:39;15.17;94.74
67862;DHT22;54665;51.462;6.698;2023-10-09T06:55:40;15.24;94.85
67862;DHT22;54665;51.462;6.698;2023-10-09T06:57:40;15.28;94.84
67862;DHT22;54665;51.462;6.698;2023-10-09T06:59:40;15.30;94.80
67862;DHT22;54665;51.462;6.698;2023-10-09T07:01:44;15.36;93.75
67862;DHT22;54665;51.462;6.698;2023-10-09T07:03:44;15.39;94.05
67862;DHT22;54665;51.462;6.698;2023-10-09T07:05:44;15.45;93.94
67862;DHT22;54665;51.462;6.698;2023-10-09T07:07:45;15.46;93.57
67862;DHT22;54665;51.462;6.698;2023-10-09T07:09:45;15.52;93.96
67862;DHT22;54665;51.462;6.698;2023-10-09T07:11:47;15.55;93.96
67862;DHT22;54665;51.462;6.698;2023-10-09T07:13:48;15.58;93.83
67862;DHT22;54665;51.462;6.698;2023-10-09T07:15:48;15.65;93.48
67862;DHT22;54665;51.462;6.698;2023-10-09T07:17:52;15.66;93.60
67862;DHT22;54665;51.462;6.698;2023-10-09T07:19:53;15.70;93.37
67862;DHT22;54665;51.462;6.698;2023-10-09T07:21:53;15.78;93.08
67862;DHT22;54665;51.462;6.698;2023-10-09T07:23:55;15.81;92.98
67862;DHT22;54665;51.462;6.698;2023-10-09T07:26:05;15.87;92.59
67862;DHT22;54665;51.462;6.698;2023-10-09T07:28:10;15.93;92.60
67862;DHT22;54665;51.462;6.698;2023-10-09T07:32:12;16.03;92.58
67862;DHT22;54665;51.462;6.698;2023-10-09T07:34:12;16.06;92.67
67862;DHT22;54665;51.462;6.698;2023-10-09T07:36:12;16.10;92.55
67862;DHT22;54665;51.462;6.698;2023-10-09T07:38:19;16.09;92.66
67862;DHT22;54665;51.462;6.698;2023-10-09T07:40:20;16.02;91.72
67862;DHT22;54665;51.462;6.698;2023-10-09T07:42:20;16.07;91.80
67862;DHT22;54665;51.462;6.698;2023-10-09T07:44:21;16.09;91.77
67862;DHT22;54665;51.462;6.698;2023-10-09T07:46:21;16.16;92.36
67862;DHT22;54665;51.462;6.698;2023-10-09T07:48:21;16.18;92.59
67862;DHT22;54665;51.462;6.698;2023-10-09T07:50:22;16.17;92.42
67862;DHT22;54665;51.462;6.698;2023-10-09T07:52:22;16.16;92.35
67862;DHT22;54665;51.462;6.698;2023-10-09T07:54:22;16.10;92.08
67862;DHT22;54665;51.462;6.698;2023-10-09T07:56:28;16.14;92.30
67862;DHT22;54665;51.462;6.698;2023-10-09T07:58:28;16.20;91.60
67862;DHT22;54665;51.462;6.698;2023-10-09T08:00:29;16.30;91.93
67862;DHT22;54665;51.462;6.698;2023-10-09T08:02:29;16.30;91.55
67862;DHT22;54665;51.462;6.698;2023-10-09T08:04:29;16.37;90.98
67862;DHT22;54665;51.462;6.698;2023-10-09T08:06:30;16.44;91.01
67862;DHT22;54665;51.462;6.698;2023-10-09T08:08:30;16.54;91.12
67862;DHT22;54665;51.462;6.698;2023-10-09T08:10:30;16.58;90.96
67862;DHT22;54665;51.462;6.698;2023-10-09T08:12:31;16.57;90.39
67862;DHT22;54665;51.462;6.698;2023-10-09T08:14:31;16.69;90.37
67862;DHT22;54665;51.462;6.698;2023-10-09T08:16:31;16.71;89.78
67862;DHT22;54665;51.462;6.698;2023-10-09T08:18:32;16.82;90.41
67862;DHT22;54665;51.462;6.698;2023-10-09T08:20:32;16.95;90.52
67862;DHT22;54665;51.462;6.698;2023-10-09T08:22:32;16.98;89.63
67862;DHT22;54665;51.462;6.698;2023-10-09T08:24:32;17.02;89.97
67862;DHT22;54665;51.462;6.698;2023-10-09T08:26:33;16.96;90.23
67862;DHT22;54665;51.462;6.698;2023-10-09T08:28:33;16.92;89.72
67862;DHT22;54665;51.462;6.698;2023-10-09T08:30:33;16.92;90.41
67862;DHT22;54665;51.462;6.698;2023-10-09T08:32:33;16.92;90.35
67862;DHT22;54665;51.462;6.698;2023-10-09T08:34:34;16.78;90.26
67862;DHT22;54665;51.462;6.698;2023-10-09T08:36:34;16.69;90.51
67862;DHT22;54665;51.462;6.698;2023-10-09T08:38:34;16.63;90.77
67862;DHT22;54665;51.462;6.698;2023-10-09T08:40:37;16.67;91.00
67862;DHT22;54665;51.462;6.698;2023-10-09T08:42:38;16.71;91.40
67862;DHT22;54665;51.462;6.698;2023-10-09T08:44:39;16.75;91.71
67862;DHT22;54665;51.462;6.698;2023-10-09T08:46:41;16.81;91.92
67862;DHT22;54665;51.462;6.698;2023-10-09T08:48:42;16.85;91.85
67862;DHT22;54665;51.462;6.698;2023-10-09T08:50:42;16.88;92.04
67862;DHT22;54665;51.462;6.698;2023-10-09T08:52:43;16.88;91.54
67862;DHT22;54665;51.462;6.698;2023-10-09T08:54:43;16.99;91.78
67862;DHT22;54665;51.462;6.698;2023-10-09T08:56:45;17.14;91.83
67862;DHT22;54665;51.462;6.698;2023-10-09T08:58:45;17.23;90.76
67862;DHT22;54665;51.462;6.698;2023-10-09T09:00:49;17.37;90.37
67862;DHT22;54665;51.462;6.698;2023-10-09T09:02:52;17.63;90.46
67862;DHT22;54665;51.462;6.698;2023-10-09T09:04:53;17.78;90.13
67862;DHT22;54665;51.462;6.698;2023-10-09T09:06:53;17.90;89.43
67862;DHT22;54665;51.462;6.698;2023-10-09T09:09:10;18.09;88.80
67862;DHT22;54665;51.462;6.698;2023-10-09T09:11:15;18.29;87.67
67862;DHT22;54665;51.462;6.698;2023-10-09T09:13:15;18.60;86.75
67862;DHT22;54665;51.462;6.698;2023-10-09T09:15:16;18.93;87.01
67862;DHT22;54665;51.462;6.698;2023-10-09T09:17:23;19.07;85.87
67862;DHT22;54665;51.462;6.698;2023-10-09T09:19:31;19.13;85.11
67862;DHT22;54665;51.462;6.698;2023-10-09T09:21:33;19.11;85.51
67862;DHT22;54665;51.462;6.698;2023-10-09T09:23:33;19.19;84.37
67862;DHT22;54665;51.462;6.698;2023-10-09T09:25:52;19.09;84.44
67862;DHT22;54665;51.462;6.698;2023-10-09T09:27:52;19.11;85.02
67862;DHT22;54665;51.462;6.698;2023-10-09T09:29:52;18.72;83.78
67862;DHT22;54665;51.462;6.698;2023-10-09T09:31:55;18.85;84.60
67862;DHT22;54665;51.462;6.698;2023-10-09T09:33:58;18.62;84.23
67862;DHT22;54665;51.462;6.698;2023-10-09T09:35:59;18.77;84.62
67862;DHT22;54665;51.462;6.698;2023-10-09T09:38:00;18.95;85.45
67862;DHT22;54665;51.462;6.698;2023-10-09T09:40:02;18.93;84.31
67862;DHT22;54665;51.462;6.698;2023-10-09T09:42:03;19.11;84.36
67862;DHT22;54665;51.462;6.698;2023-10-09T09:44:06;19.21;83.87
67862;DHT22;54665;51.462;6.698;2023-10-09T09:46:07;18.82;83.39
67862;DHT22;54665;51.462;6.698;2023-10-09T09:48:08;18.80;84.07
67862;DHT22;54665;51.462;6.698;2023-10-09T09:50:08;18.83;83.74
67862;DHT22;54665;51.462;6.698;2023-10-09T09:52:09;18.86;83.22
67862;DHT22;54665;51.462;6.698;2023-10-09T09:54:10;19.06;82.95
67862;DHT22;54665;51.462;6.698;2023-10-09T09:56:11;18.76;83.08
67862;DHT22;54665;51.462;6.698;2023-10-09T09:58:18;18.83;84.23
67862;DHT22;54665;51.462;6.698;2023-10-09T10:00:23;18.76;84.13
67862;DHT22;54665;51.462;6.698;2023-10-09T10:02:29;18.93;82.37
67862;DHT22;54665;51.462;6.698;2023-10-09T10:04:31;19.19;83.92
67862;DHT22;54665;51.462;6.698;2023-10-09T10:06:33;19.38;83.62
67862;DHT22;54665;51.462;6.698;2023-10-09T10:08:34;19.61;82.41
67862;DHT22;54665;51.462;6.698;2023-10-09T10:10:37;19.86;81.08
67862;DHT22;54665;51.462;6.698;2023-10-09T10:17:04;18.99;82.24
67862;DHT22;54665;51.462;6.698;2023-10-09T10:19:05;19.40;81.53
67862;DHT22;54665;51.462;6.698;2023-10-09T10:23:18;19.62;80.72
67862;DHT22;54665;51.462;6.698;2023-10-09T10:27:29;19.46;80.36
67862;DHT22;54665;51.462;6.698;2023-10-09T10:29:29;19.41;81.25
67862;DHT22;54665;51.462;6.698;2023-10-09T10:35:52;19.64;79.94
67862;DHT22;54665;51.462;6.698;2023-10-09T10:37:52;19.71;79.19
67862;DHT22;54665;51.462;6.698;2023-10-09T10:39:52;19.68;79.85
67862;DHT22;54665;51.462;6.698;2023-10-09T10:41:57;19.44;80.94
67862;DHT22;54665;51.462;6.698;2023-10-09T10:44:00;19.81;80.31
67862;DHT22;54665;51.462;6.698;2023-10-09T10:46:05;19.79;80.04
67862;DHT22;54665;51.462;6.698;2023-10-09T10:48:06;19.86;79.71
67862;DHT22;54665;51.462;6.698;2023-10-09T10:50:07;19.72;79.71
67862;DHT22;54665;51.462;6.698;2023-10-09T10:52:07;19.71;79.49
67862;DHT22;54665;51.462;6.698;2023-10-09T10:54:08;19.82;78.61
67862;DHT22;54665;51.462;6.698;2023-10-09T10:56:09;19.68;79.30
67862;DHT22;54665;51.462;6.698;2023-10-09T10:58:18;19.85;78.86
67862;DHT22;54665;51.462;6.698;2023-10-09T11:00:19;19.99;80.12
67862;DHT22;54665;51.462;6.698;2023-10-09T11:02:20;20.25;78.46
67862;DHT22;54665;51.462;6.698;2023-10-09T11:04:24;20.13;77.54
67862;DHT22;54665;51.462;6.698;2023-10-09T11:06:28;19.79;78.41
67862;DHT22;54665;51.462;6.698;2023-10-09T11:08:28;19.65;79.39
67862;DHT22;54665;51.462;6.698;2023-10-09T11:10:29;19.83;79.07
67862;DHT22;54665;51.462;6.698;2023-10-09T11:12:51;20.13;77.86
67862;DHT22;54665;51.462;6.698;2023-10-09T11:14:51;20.26;77.79
67862;DHT22;54665;51.462;6.698;2023-10-09T11:16:51;19.95;78.82
67862;DHT22;54665;51.462;6.698;2023-10-09T11:18:51;20.36;78.05
67862;DHT22;54665;51.462;6.698;2023-10-09T11:20:53;20.20;77.74
67862;DHT22;54665;51.462;6.698;2023-10-09T11:22:54;20.37;77.65
67862;DHT22;54665;51.462;6.698;2023-10-09T11:24:54;20.53;78.53
67862;DHT22;54665;51.462;6.698;2023-10-09T11:26:55;20.54;77.03
67862;DHT22;54665;51.462;6.698;2023-10-09T11:29:08;20.54;77.05
67862;DHT22;54665;51.462;6.698;2023-10-09T11:31:12;20.36;77.15
67862;DHT22;54665;51.462;6.698;2023-10-09T11:33:12;20.69;77.32
67862;DHT22;54665;51.462;6.698;2023-10-09T11:35:13;20.02;78.00
67862;DHT22;54665;51.462;6.698;2023-10-09T11:37:14;20.04;78.88
67862;DHT22;54665;51.462;6.698;2023-10-09T11:39:24;20.04;78.30
67862;DHT22;54665;51.462;6.698;2023-10-09T11:41:25;20.33;77.62
67862;DHT22;54665;51.462;6.698;2023-10-09T11:43:26;20.60;77.87
67862;DHT22;54665;51.462;6.698;2023-10-09T11:45:27;20.52;76.84
67862;DHT22;54665;51.462;6.698;2023-10-09T11:47:34;20.49;77.30
67862;DHT22;54665;51.462;6.698;2023-10-09T11:49:34;20.32;78.28
67862;DHT22;54665;51.462;6.698;2023-10-09T11:51:35;20.28;77.57
67862;DHT22;54665;51.462;6.698;2023-10-09T11:53:42;20.56;77.53
67862;DHT22;54665;51.462;6.698;2023-10-09T11:55:44;20.32;78.57
67862;DHT22;54665;51.462;6.698;2023-10-09T11:57:44;20.79;77.23
67862;DHT22;54665;51.462;6.698;2023-10-09T11:59:44;20.97;76.40
67862;DHT22;54665;51.462;6.698;2023-10-09T12:01:48;20.98;76.16
67862;DHT22;54665;51.462;6.698;2023-10-09T12:03:49;20.93;75.99
67862;DHT22;54665;51.462;6.698;2023-10-09T12:05:50;20.88;75.87
67862;DHT22;54665;51.462;6.698;2023-10-09T12:07:50;20.71;77.30
67862;DHT22;54665;51.462;6.698;2023-10-09T12:09:51;20.67;76.89
67862;DHT22;54665;51.462;6.698;2023-10-09T12:11:51;20.70;76.38
67862;DHT22;54665;51.462;6.698;2023-10-09T12:13:51;20.73;76.12
67862;DHT22;54665;51.462;6.698;2023-10-09T12:15:52;20.73;76.65
67862;DHT22;54665;51.462;6.698;2023-10-09T12:17:53;20.63;77.60
67862;DHT22;54665;51.462;6.698;2023-10-09T12:19:53;20.88;76.33
67862;DHT22;54665;51.462;6.698;2023-10-09T12:21:54;20.83;76.42
67862;DHT22;54665;51.462;6.698;2023-10-09T12:23:54;20.84;76.93
67862;DHT22;54665;51.462;6.698;2023-10-09T12:25:55;21.02;76.74
67862;DHT22;54665;51.462;6.698;2023-10-09T12:27:55;20.74;76.26
67862;DHT22;54665;51.462;6.698;2023-10-09T12:29:55;20.44;76.47
67862;DHT22;54665;51.462;6.698;2023-10-09T12:31:56;20.39;77.82
67862;DHT22;54665;51.462;6.698;2023-10-09T12:33:57;20.73;76.55
67862;DHT22;54665;51.462;6.698;2023-10-09T12:35:58;20.85;76.49
67862;DHT22;54665;51.462;6.698;2023-10-09T12:37:58;20.57;77.52
67862;DHT22;54665;51.462;6.698;2023-10-09T12:39:58;20.67;76.55
67862;DHT22;54665;51.462;6.698;2023-10-09T12:42:01;20.61;76.74
67862;DHT22;54665;51.462;6.698;2023-10-09T12:44:02;20.97;76.59
67862;DHT22;54665;51.462;6.698;2023-10-09T12:46:05;21.21;75.84
67862;DHT22;54665;51.462;6.698;2023-10-09T12:48:05;21.35;75.95
67862;DHT22;54665;51.462;6.698;2023-10-09T12:50:06;21.05;75.48
67862;DHT22;54665;51.462;6.698;2023-10-09T12:52:07;20.77;77.73
67862;DHT22;54665;51.462;6.698;2023-10-09T12:54:07;20.97;76.43
67862;DHT22;54665;51.462;6.698;2023-10-09T12:56:08;21.15;75.17
67862;DHT22;54665;51.462;6.698;2023-10-09T12:58:09;21.07;75.86
67862;DHT22;54665;51.462;6.698;2023-10-09T13:00:10;21.17;76.98
67862;DHT22;54665;51.462;6.698;2023-10-09T13:02:14;21.45;75.08